1960 VIRGINIA (1960220N18140)


On this page: IBTrACS data - Map and Plots - Positions - Intensities - Original source data

Summary

Start Aug 7
End Aug 13
Basin WP
LMI 87 kt
Sources jtwc_wp
tokyo
cma
td9636
td9635
ds824_wp
In WMO? Yes
Previous storm 1960 MISSING (WP)
Previous in basin 1960 MISSING (WP)
Concurrent storms 1960 TRIS (WP)
1960 MISSING (WP)
1960 MISSING (WP)
1960 VIRGINIA (WP)
1960 TRIX-1 (WP)
1960 05B (NI)
1960 AGNES (WP)
1960 WENDY (WP)
1960 07B (NI)
Next in basin 1960 TRIX-1 (WP)
Next storm 1960 TRIX-1 (WP)

top of page IBTrACS Data: File Access

No storm imagery available

top of page Plots:

Map of storm track will not appear if FTP is down
Time series of cyclone Maximum Sustained Wind will not appear if FTP is down
Time series of cyclone Minimum Central Pressure will not appear if FTP is down

top of page Track Data:Position

jtwc_wp tokyo cma td9636 td9635 ds824_wp
Date Lat Lon Lat Lon Lat Lon Lat Lon Lat Lon Lat Lon
1960-08-07 00:00:00 17.5 140.0
1960-08-07 06:00:00 18.0 139.9
1960-08-07 12:00:00 18.5 139.6
1960-08-07 18:00:00 20.0 140.0 18.8 139.6
1960-08-08 00:00:00 18.9 140.1 20.5 139.5 19.2 139.8 18.9 140.1 18.9 140.1 18.9 140.1
1960-08-08 06:00:00 19.5 140.1 21.0 139.8 19.5 140.3 19.5 140.2 19.5 140.1 19.5 140.1
1960-08-08 12:00:00 20.1 140.6 21.0 140.5 20.0 140.9 20.1 140.6 20.1 140.6 20.1 140.6
1960-08-08 18:00:00 20.7 141.2 21.1 141.1 20.7 141.4 20.7 141.2 20.7 141.2 20.7 141.2
1960-08-09 00:00:00 21.6 141.7 21.5 141.7 21.6 141.7 21.6 141.7 21.6 141.7 21.6 141.7
1960-08-09 06:00:00 23.1 141.7 23.2 141.3 23.0 141.6 23.1 141.6 23.1 141.7 23.1 141.7
1960-08-09 12:00:00 24.9 140.9 25.0 140.8 25.0 141.0 24.9 140.9 24.9 140.9 24.9 140.9
1960-08-09 18:00:00 26.9 139.7 26.9 139.5 27.0 139.8 26.9 139.7 26.9 139.7 26.9 139.7
1960-08-10 00:00:00 28.9 138.1 28.9 138.0 28.9 138.0 28.9 138.1 28.9 138.1 28.9 138.1
1960-08-10 06:00:00 30.6 136.5 30.8 136.4 30.8 136.7 30.7 136.5 30.6 136.5 30.6 136.5
1960-08-10 12:00:00 32.2 135.0 32.7 135.0 32.3 135.3 32.2 135.0 32.2 135.0 32.2 135.0
1960-08-10 18:00:00 33.3 133.9 33.2 134.1 33.2 134.1 33.3 133.9 33.3 133.9 33.3 133.9
1960-08-11 00:00:00 34.3 133.5 34.2 133.8 34.2 133.8 34.3 133.5 34.3 133.5 34.3 133.5
1960-08-11 06:00:00 35.4 133.6 35.2 133.7 35.4 133.8 35.5 133.5 35.4 133.6 35.4 133.6
1960-08-11 12:00:00 36.9 134.5 36.8 135.8 36.9 134.7 36.9 134.5 36.9 134.5 36.9 134.5
1960-08-11 18:00:00 38.3 136.4 38.8 136.8 38.3 136.5 38.3 136.4 38.3 136.4 38.3 136.4
1960-08-12 00:00:00 39.9 139.3 39.9 139.9 40.0 139.8 39.9 139.2 39.9 139.2 39.9 139.3
1960-08-12 06:00:00 41.4 145.0 41.4 144.9 42.0 145.0 41.4 145.0 41.4 145.0
1960-08-12 12:00:00 42.8 150.0 43.0 148.5 43.0 148.5 42.8 150.0
1960-08-12 18:00:00 43.5 154.5 43.2 153.8 43.2 153.8 43.5 154.5
1960-08-13 00:00:00 44.0 159.0 42.5 158.6 42.5 158.6 44.0 159.0

top of pageTrack Data:Intensity

jtwc_wp tokyo cma td9636 td9635 ds824_wp
Date Wind Pres Wind Pres Wind Pres Wind Pres Wind Pres Wind Pres
1960-08-07 00:00:00 1006.
1960-08-07 06:00:00 1004.
1960-08-07 12:00:00 23. 1002.
1960-08-07 18:00:00 1002. 29. 1000.
1960-08-08 00:00:00 35. 1004. 39. 1000. 35. 35. 1000. 35.
1960-08-08 06:00:00 40. 1000. 39. 1000. 35. 40. 1000. 40.
1960-08-08 12:00:00 45. 998. 39. 998. 45. 45. 999. 45.
1960-08-08 18:00:00 60. 995. 49. 997. 45. 60. 998. 60.
1960-08-09 00:00:00 70. 985. 68. 985. 68. 68. 997. 70.
1960-08-09 06:00:00 75. 985. 68. 985. 68. 75. 990. 75.
1960-08-09 12:00:00 80. 990. 78. 985. 78. 78. 986. 80.
1960-08-09 18:00:00 80. 990. 78. 985. 78. 80. 985. 80.
1960-08-10 00:00:00 85. 985. 78. 983. 85. 85. 984. 85.
1960-08-10 06:00:00 85. 980. 87. 980. 85. 85. 976. 85.
1960-08-10 12:00:00 80. 980. 87. 980. 80. 80. 974. 80.
1960-08-10 18:00:00 70. 980. 87. 980. 80. 68. 979. 70.
1960-08-11 00:00:00 50. 990. 58. 990. 50. 50. 983. 50.
1960-08-11 06:00:00 45. 994. 49. 994. 50. 45. 988. 45.
1960-08-11 12:00:00 55. 996. 49. 996. 55. 55. 992. 55.
1960-08-11 18:00:00 65. 996. 49. 996. 65. 65. 997. 65.
1960-08-12 00:00:00 65. 996. 49. 996. 65. 65. 999. 65.
1960-08-12 06:00:00 60. 998. 39. 996. 60. 1000. 60.
1960-08-12 12:00:00 30. 1000. 29. 1000. 30.
1960-08-12 18:00:00 25. 1000. 23. 1000. 25.
1960-08-13 00:00:00 25. 1000. 23. 1000. 25.

top of page Links to source data

Source Source file Format
jtwc_wp bwp101960.txt ATCF
tokyo bst_all.txt:Line=7935:VIRGINIA:6011 JMA text table
cma CH1960BST.txt:Storm=16:Virginia CMA text table
td9636 cons_worldwide_trop_cyclone_18710101-19891231-003:Line=18639 TD 9636
td9635 typhoons-analogs_19450101-19761231.corrected:Line=6174 TD 9635
ds824_wp w_npac.dat:338:VIRGINIA HURDAT